createdAt,value
2023-08-11T00:02:44.658Z,96903.00
2023-08-11T00:06:50.287Z,96909.00
2023-08-11T00:10:58.888Z,96911.00
2023-08-11T00:15:01.974Z,96909.00
2023-08-11T00:19:05.295Z,96904.00
2023-08-11T00:23:12.105Z,96902.00
2023-08-11T00:27:15.303Z,96900.00
2023-08-11T00:31:19.310Z,96899.00
2023-08-11T00:35:24.763Z,96904.00
2023-08-11T00:39:32.241Z,96898.00
2023-08-11T00:43:35.395Z,96894.00
2023-08-11T00:47:42.731Z,96896.00
2023-08-11T00:51:46.106Z,96893.00
2023-08-11T00:55:50.629Z,96893.00
2023-08-11T00:59:53.785Z,96897.00
2023-08-11T01:03:57.637Z,96897.00
2023-08-11T01:08:08.159Z,96879.00
2023-08-11T01:12:24.699Z,96888.00
2023-08-11T01:16:29.537Z,96887.00
2023-08-11T01:20:52.918Z,96891.00
2023-08-11T01:24:58.407Z,96894.00
2023-08-11T01:29:04.534Z,96896.00
2023-08-11T01:33:07.865Z,96892.00
2023-08-11T01:37:13.583Z,96894.00
2023-08-11T01:41:18.058Z,96893.00
2023-08-11T01:45:22.400Z,96895.00
2023-08-11T01:49:29.198Z,96895.00
2023-08-11T01:53:32.281Z,96900.00
2023-08-11T01:57:44.848Z,96895.00
2023-08-11T02:01:54.870Z,96901.00
2023-08-11T02:06:00.160Z,96899.00
2023-08-11T02:10:09.368Z,96893.00
2023-08-11T02:14:13.809Z,96894.00
2023-08-11T02:18:16.862Z,96891.00
2023-08-11T02:22:20.176Z,96902.00
2023-08-11T02:26:24.086Z,96901.00
2023-08-11T02:30:30.768Z,96908.00
2023-08-11T02:34:33.994Z,96910.00
2023-08-11T02:38:37.103Z,96918.00
2023-08-11T02:42:43.269Z,96909.00
2023-08-11T02:46:47.880Z,96917.00
2023-08-11T02:50:51.622Z,96912.00
2023-08-11T02:54:56.287Z,96922.00
2023-08-11T02:59:04.715Z,96912.00
2023-08-11T03:03:11.177Z,96911.00
2023-08-11T03:07:19.492Z,96922.00
2023-08-11T03:11:22.769Z,96910.00
2023-08-11T03:15:28.649Z,96907.00
2023-08-11T03:19:33.637Z,96909.00
2023-08-11T03:23:38.467Z,96916.00
2023-08-11T03:27:44.926Z,96917.00
2023-08-11T03:31:51.129Z,96906.00
2023-08-11T03:35:56.810Z,96912.00
2023-08-11T03:39:59.861Z,96920.00
2023-08-11T03:44:03.672Z,96921.00
2023-08-11T03:48:08.737Z,96914.00
2023-08-11T03:52:15.834Z,96921.00
2023-08-11T03:56:21.640Z,96930.00
2023-08-11T04:00:24.830Z,96933.00
2023-08-11T04:04:27.941Z,96927.00
2023-08-11T04:08:32.518Z,96924.00
2023-08-11T04:12:35.710Z,96934.00
2023-08-11T04:16:38.868Z,96931.00
2023-08-11T04:20:42.180Z,96930.00
2023-08-11T04:24:46.597Z,96942.00
2023-08-11T04:28:49.835Z,96934.00
2023-08-11T04:32:55.079Z,96939.00
2023-08-11T04:37:00.407Z,96943.00
2023-08-11T04:41:06.998Z,96942.00
2023-08-11T04:45:11.245Z,96935.00
2023-08-11T04:49:14.836Z,96943.00
2023-08-11T04:53:19.035Z,96943.00
2023-08-11T04:57:23.531Z,96946.00
2023-08-11T05:01:27.996Z,96950.00
2023-08-11T05:05:34.395Z,96941.00
2023-08-11T05:09:37.891Z,96947.00
2023-08-11T05:13:45.768Z,96958.00
2023-08-11T05:17:48.876Z,96966.00
2023-08-11T05:21:54.224Z,96965.00
2023-08-11T05:25:57.790Z,96970.00
2023-08-11T05:30:16.681Z,96975.00
2023-08-11T05:34:19.792Z,96980.00
2023-08-11T05:38:23.887Z,96966.00
2023-08-11T05:42:29.309Z,96970.00
2023-08-11T05:46:33.762Z,96962.00
2023-08-11T05:50:36.922Z,96971.00
2023-08-11T05:54:41.705Z,96974.00
2023-08-11T05:58:44.913Z,96975.00
2023-08-11T06:02:49.511Z,96972.00
2023-08-11T06:06:52.841Z,96972.00
2023-08-11T06:11:01.682Z,96966.00
2023-08-11T06:15:06.630Z,96966.00
2023-08-11T06:19:13.983Z,96969.00
2023-08-11T06:23:19.517Z,96969.00
2023-08-11T06:27:22.606Z,96971.00
2023-08-11T06:31:29.422Z,96974.00
2023-08-11T06:35:33.946Z,96967.00
2023-08-11T06:39:37.174Z,96973.00
2023-08-11T06:43:41.364Z,96979.00
2023-08-11T06:47:44.499Z,96981.00
2023-08-11T06:51:49.047Z,96987.00
2023-08-11T06:55:52.487Z,96996.00
2023-08-11T06:59:57.827Z,97007.00
2023-08-11T07:04:02.292Z,97003.00
2023-08-11T07:08:12.328Z,97003.00
2023-08-11T07:12:15.545Z,96997.00
2023-08-11T07:16:18.894Z,97006.00
2023-08-11T07:20:22.633Z,97009.00
2023-08-11T07:24:28.270Z,97019.00
2023-08-11T07:28:32.464Z,97019.00
2023-08-11T07:32:42.879Z,97030.00
2023-08-11T07:36:46.105Z,97026.00
2023-08-11T07:40:50.751Z,97030.00
2023-08-11T07:44:53.834Z,97040.00
2023-08-11T07:49:01.134Z,97036.00
2023-08-11T07:53:04.840Z,97038.00
2023-08-11T07:57:12.401Z,97040.00
2023-08-11T08:01:15.766Z,97036.00
2023-08-11T08:05:22.158Z,97034.00
2023-08-11T08:09:27.264Z,97030.00
2023-08-11T08:13:33.068Z,97039.00
2023-08-11T08:17:39.681Z,97052.00
2023-08-11T08:21:47.792Z,97054.00
2023-08-11T08:25:51.230Z,97052.00
2023-08-11T08:29:56.190Z,97050.00
2023-08-11T08:33:59.556Z,97058.00
2023-08-11T08:38:02.684Z,97057.00
2023-08-11T08:42:07.631Z,97061.00
2023-08-11T08:46:15.412Z,97057.00
2023-08-11T08:50:19.741Z,97063.00
2023-08-11T08:54:23.512Z,97058.00
2023-08-11T08:58:26.973Z,97057.00
2023-08-11T09:02:33.814Z,97052.00
2023-08-11T09:06:37.611Z,97053.00
2023-08-11T09:10:44.137Z,97047.00
2023-08-11T09:14:47.515Z,97050.00
2023-08-11T09:18:53.914Z,97047.00
2023-08-11T09:22:59.973Z,97054.00
2023-08-11T09:27:04.430Z,97053.00
2023-08-11T09:31:20.337Z,97049.00
2023-08-11T09:35:28.171Z,97047.00
2023-08-11T09:39:35.863Z,97046.00
2023-08-11T09:43:39.097Z,97045.00
2023-08-11T09:47:43.689Z,97047.00
2023-08-11T09:51:51.094Z,97043.00
2023-08-11T09:55:57.285Z,97043.00
2023-08-11T10:00:01.963Z,97041.00
2023-08-11T10:04:11.900Z,97040.00
2023-08-11T10:08:20.390Z,97041.00
2023-08-11T10:12:25.643Z,97036.00
2023-08-11T10:16:30.054Z,97036.00
2023-08-11T10:20:34.551Z,97038.00
2023-08-11T10:24:46.129Z,97039.00
2023-08-11T10:28:53.109Z,97045.00
2023-08-11T10:33:08.499Z,97043.00
2023-08-11T10:37:14.777Z,97042.00
2023-08-11T10:41:22.812Z,97037.00
2023-08-11T10:45:29.671Z,97038.00
2023-08-11T10:49:36.363Z,97032.00
2023-08-11T10:53:42.149Z,97044.00
2023-08-11T10:58:14.915Z,97041.00
2023-08-11T11:02:21.815Z,97034.00
2023-08-11T11:06:28.248Z,97032.00
2023-08-11T11:10:49.319Z,97028.00
2023-08-11T11:14:57.541Z,97025.00
2023-08-11T11:19:01.826Z,97026.00
2023-08-11T11:23:08.605Z,97025.00
2023-08-11T11:27:13.080Z,97023.00
2023-08-11T11:31:18.383Z,97025.00
2023-08-11T11:35:24.714Z,97027.00
2023-08-11T11:39:30.707Z,97024.00
2023-08-11T11:43:40.561Z,97020.00
2023-08-11T11:47:50.713Z,97020.00
2023-08-11T11:51:56.312Z,97017.00
2023-08-11T11:55:59.480Z,97015.00
2023-08-11T12:00:09.080Z,97023.00
2023-08-11T12:04:13.912Z,97022.00
2023-08-11T12:08:47.353Z,97015.00
2023-08-11T12:13:03.744Z,97011.00
2023-08-11T12:17:10.805Z,97005.00
2023-08-11T12:21:17.876Z,97010.00
2023-08-11T12:25:24.298Z,97014.00
2023-08-11T12:29:27.816Z,97019.00
2023-08-11T12:33:36.238Z,97018.00
2023-08-11T12:37:43.435Z,97002.00
2023-08-11T12:41:48.417Z,97007.00
2023-08-11T12:45:53.532Z,96998.00
2023-08-11T12:49:57.024Z,97005.00
2023-08-11T12:54:04.278Z,96996.00
2023-08-11T12:58:13.010Z,96998.00
2023-08-11T13:02:20.967Z,97000.00
2023-08-11T13:06:27.021Z,96991.00
2023-08-11T13:10:32.715Z,96991.00
2023-08-11T13:14:39.436Z,97000.00
2023-08-11T13:18:42.541Z,96996.00
2023-08-11T13:22:47.619Z,96988.00
2023-08-11T13:26:52.860Z,96986.00
2023-08-11T13:30:59.226Z,96987.00
2023-08-11T13:35:05.608Z,96985.00
2023-08-11T13:39:10.024Z,96986.00
2023-08-11T13:43:19.056Z,96984.00
2023-08-11T13:47:24.557Z,96983.00
2023-08-11T13:51:28.085Z,96980.00
2023-08-11T13:55:42.941Z,96986.00
2023-08-11T13:59:47.384Z,96973.00
2023-08-11T14:03:50.578Z,96974.00
2023-08-11T14:07:56.613Z,96972.00
2023-08-11T14:12:02.140Z,96969.00
2023-08-11T14:16:15.801Z,96969.00
2023-08-11T14:20:20.053Z,96965.00
2023-08-11T14:24:23.172Z,96970.00
2023-08-11T14:28:27.389Z,96962.00
2023-08-11T14:32:32.176Z,96961.00
2023-08-11T14:36:37.270Z,96962.00
2023-08-11T14:40:45.193Z,96957.00
2023-08-11T14:44:51.166Z,96961.00
2023-08-11T14:48:56.289Z,96959.00
2023-08-11T14:53:11.482Z,96959.00
2023-08-11T14:57:19.716Z,96952.00
2023-08-11T15:01:22.828Z,96955.00
2023-08-11T15:05:27.952Z,96948.00
2023-08-11T15:09:33.284Z,96945.00
2023-08-11T15:13:36.383Z,96938.00
2023-08-11T15:17:39.452Z,96946.00
2023-08-11T15:21:44.022Z,96933.00
2023-08-11T15:25:47.417Z,96937.00
2023-08-11T15:29:50.530Z,96940.00
2023-08-11T15:33:57.867Z,96934.00
2023-08-11T15:38:07.220Z,96933.00
2023-08-11T15:42:19.395Z,96933.00
2023-08-11T15:46:22.692Z,96932.00
2023-08-11T15:50:26.513Z,96929.00
2023-08-11T15:54:31.846Z,96931.00
2023-08-11T15:58:41.387Z,96927.00
2023-08-11T16:02:44.683Z,96931.00
2023-08-11T16:06:49.881Z,96935.00
2023-08-11T16:10:54.654Z,96933.00
2023-08-11T16:14:59.150Z,96934.00
2023-08-11T16:19:04.572Z,96941.00
2023-08-11T16:23:12.377Z,96937.00
2023-08-11T16:27:17.176Z,96932.00
2023-08-11T16:31:23.032Z,96931.00
2023-08-11T16:35:26.071Z,96929.00
2023-08-11T16:39:29.195Z,96926.00
2023-08-11T16:43:33.677Z,96921.00
2023-08-11T16:47:36.816Z,96919.00
2023-08-11T16:51:44.416Z,96927.00
2023-08-11T16:55:51.123Z,96920.00
2023-08-11T16:59:56.828Z,96912.00
2023-08-11T17:04:00.352Z,96913.00
2023-08-11T17:08:06.085Z,96906.00
2023-08-11T17:12:11.188Z,96914.00
2023-08-11T17:16:19.146Z,96915.00
2023-08-11T17:20:22.565Z,96917.00
2023-08-11T17:24:25.723Z,96917.00
2023-08-11T17:28:30.780Z,96916.00
2023-08-11T17:32:36.500Z,96902.00
2023-08-11T17:36:41.361Z,96904.00
2023-08-11T17:40:44.432Z,96902.00
2023-08-11T17:44:49.693Z,96888.00
2023-08-11T17:48:54.630Z,96892.00
2023-08-11T17:52:57.759Z,96888.00
2023-08-11T17:57:02.758Z,96884.00
2023-08-11T18:01:09.860Z,96879.00
2023-08-11T18:05:14.341Z,96882.00
2023-08-11T18:09:19.271Z,96889.00
2023-08-11T18:13:22.351Z,96883.00
2023-08-11T18:17:30.816Z,96876.00
2023-08-11T18:21:44.552Z,96875.00
2023-08-11T18:25:56.773Z,96883.00
2023-08-11T18:30:01.464Z,96885.00
2023-08-11T18:34:10.377Z,96895.00
2023-08-11T18:38:15.269Z,96901.00
2023-08-11T18:42:18.410Z,96904.00
2023-08-11T18:46:21.559Z,96901.00
2023-08-11T18:50:27.152Z,96908.00
2023-08-11T18:54:31.735Z,96903.00
2023-08-11T18:58:35.858Z,96900.00
2023-08-11T19:02:41.282Z,96896.00
2023-08-11T19:06:45.685Z,96897.00
2023-08-11T19:10:54.456Z,96902.00
2023-08-11T19:14:57.707Z,96905.00
2023-08-11T19:19:00.989Z,96912.00
2023-08-11T19:23:05.932Z,96917.00
2023-08-11T19:27:10.427Z,96917.00
2023-08-11T19:31:15.114Z,96920.00
2023-08-11T19:35:18.545Z,96917.00
2023-08-11T19:39:23.632Z,96910.00
2023-08-11T19:43:32.890Z,96911.00
2023-08-11T19:47:37.394Z,96901.00
2023-08-11T19:51:46.669Z,96904.00
2023-08-11T19:55:53.976Z,96897.00
2023-08-11T19:59:58.484Z,96887.00
2023-08-11T20:04:03.865Z,96884.00
2023-08-11T20:08:07.303Z,96892.00
2023-08-11T20:12:11.082Z,96887.00
2023-08-11T20:16:16.937Z,96891.00
2023-08-11T20:20:23.760Z,96882.00
2023-08-11T20:24:28.581Z,96888.00
2023-08-11T20:28:31.711Z,96885.00
2023-08-11T20:32:40.417Z,96882.00
2023-08-11T20:36:43.510Z,96885.00
2023-08-11T20:40:50.324Z,96883.00
2023-08-11T20:44:58.042Z,96883.00
2023-08-11T20:49:05.086Z,96883.00
2023-08-11T20:53:10.214Z,96876.00
2023-08-11T20:57:13.918Z,96881.00
2023-08-11T21:01:19.314Z,96881.00
2023-08-11T21:05:23.940Z,96883.00
2023-08-11T21:09:27.249Z,96885.00
2023-08-11T21:13:34.723Z,96878.00
2023-08-11T21:17:38.055Z,96884.00
2023-08-11T21:21:43.873Z,96888.00
2023-08-11T21:25:46.975Z,96890.00
2023-08-11T21:29:50.267Z,96888.00
2023-08-11T21:34:07.357Z,96888.00
2023-08-11T21:42:20.877Z,96878.00
2023-08-11T21:46:24.069Z,96876.00
2023-08-11T21:50:27.535Z,96873.00
2023-08-11T21:54:32.239Z,96873.00
2023-08-11T21:58:36.860Z,96880.00
2023-08-11T22:02:39.977Z,96870.00
2023-08-11T22:06:44.252Z,96869.00
2023-08-11T22:10:51.830Z,96865.00
2023-08-11T22:14:56.818Z,96862.00
2023-08-11T22:19:00.178Z,96861.00
2023-08-11T22:23:05.661Z,96857.00
2023-08-11T22:27:11.147Z,96854.00
2023-08-11T22:31:14.662Z,96854.00
2023-08-11T22:35:19.444Z,96850.00
2023-08-11T22:39:22.547Z,96854.00
2023-08-11T22:43:28.368Z,96857.00
2023-08-11T22:47:34.308Z,96861.00
2023-08-11T22:51:42.691Z,96860.00
2023-08-11T22:55:52.787Z,96860.00
2023-08-11T22:59:59.337Z,96847.00
2023-08-11T23:04:02.502Z,96850.00
2023-08-11T23:08:06.631Z,96851.00
2023-08-11T23:12:14.223Z,96839.00
2023-08-11T23:16:19.724Z,96837.00
2023-08-11T23:20:22.998Z,96834.00
2023-08-11T23:24:28.517Z,96839.00
2023-08-11T23:28:32.168Z,96837.00
2023-08-11T23:32:38.015Z,96836.00
2023-08-11T23:36:44.931Z,96835.00
2023-08-11T23:40:49.955Z,96844.00
2023-08-11T23:44:53.059Z,96842.00
2023-08-11T23:49:00.331Z,96841.00
2023-08-11T23:53:08.530Z,96841.00
2023-08-11T23:57:16.204Z,96835.00
